Time;durP1;ratioP1;P1;durP2;ratioP2;P2;SDS_P1;SDS_P2;PMS_P1;PMS_P2;Temp;Humidity;BMP_temperature;BMP_pressure;BME280_temperature;BME280_humidity;BME280_pressure;Samples;Min_cycle;Max_cycle;Signal;HPM_P1;HPM_P2
2020/12/21 00:00:36;;;;;;;19.60;10.57;;;;;;;17.84;70.09;102082.16;5066131;28;20039;-83
2020/12/21 00:03:02;;;;;;;15.50;11.00;;;;;;;17.84;70.02;102083.03;5045627;28;20468;-82
2020/12/21 00:05:30;;;;;;;13.55;10.68;;;;;;;17.84;70.62;102087.50;5058988;28;20491;-81
2020/12/21 00:08:02;;;;;;;16.80;11.50;;;;;;;17.83;70.36;102085.69;5084549;28;20457;-83
2020/12/21 00:10:31;;;;;;;15.50;10.38;;;;;;;17.85;70.41;102084.81;5081096;28;20043;-85
2020/12/21 00:12:57;;;;;;;12.52;10.40;;;;;;;17.84;70.54;102082.16;5066859;28;20039;-85
2020/12/21 00:15:24;;;;;;;13.88;10.85;;;;;;;17.82;70.39;102076.78;5067267;28;20057;-84
2020/12/21 00:17:50;;;;;;;16.88;10.70;;;;;;;17.83;70.60;102075.00;5068364;28;20036;-80
2020/12/21 00:20:16;;;;;;;19.58;10.45;;;;;;;17.92;70.81;102073.28;5084358;28;20037;-80
2020/12/21 00:22:42;;;;;;;15.05;11.48;;;;;;;17.91;70.54;102068.84;5083071;28;20040;-79
2020/12/21 00:25:09;;;;;;;20.70;11.10;;;;;;;17.84;70.58;102067.00;5071082;28;20036;-81
2020/12/21 00:27:35;;;;;;;15.63;11.30;;;;;;;17.87;70.33;102068.78;5102824;28;20040;-77
2020/12/21 00:30:03;;;;;;;13.60;9.90;;;;;;;17.85;70.67;102068.78;5081224;28;20036;-81
2020/12/21 00:32:29;;;;;;;13.13;10.38;;;;;;;17.87;70.94;102060.78;5087806;28;20032;-79
2020/12/21 00:34:55;;;;;;;17.90;10.85;;;;;;;17.86;70.29;102054.53;5063997;28;20041;-79
2020/12/21 00:37:21;;;;;;;14.00;10.15;;;;;;;17.84;70.47;102060.78;5086664;28;20027;-78
2020/12/21 00:39:48;;;;;;;22.98;10.63;;;;;;;17.83;70.83;102069.66;5085445;28;20688;-83
2020/12/21 00:42:15;;;;;;;17.85;9.90;;;;;;;17.84;70.86;102071.47;5081544;28;20028;-84
2020/12/21 00:44:41;;;;;;;12.68;10.02;;;;;;;17.80;70.84;102081.22;5089568;28;20036;-82
2020/12/21 00:47:07;;;;;;;15.43;10.15;;;;;;;17.83;71.02;102078.56;5065954;28;20043;-83
2020/12/21 00:49:34;;;;;;;14.15;10.00;;;;;;;17.85;70.34;102075.91;5085817;28;20361;-83
2020/12/21 00:52:01;;;;;;;13.82;9.27;;;;;;;17.82;70.25;102075.88;5064518;28;20031;-83
2020/12/21 00:54:27;;;;;;;12.25;9.70;;;;;;;17.82;70.94;102067.88;5083087;28;20024;-82
2020/12/21 00:56:57;;;;;;;11.35;9.30;;;;;;;17.79;70.40;102079.41;5065189;28;20031;-82
2020/12/21 00:59:23;;;;;;;15.07;10.48;;;;;;;17.82;70.71;102078.56;5067378;28;20043;-82
2020/12/21 01:01:49;;;;;;;13.13;8.77;;;;;;;17.81;70.94;102077.66;5080755;28;20032;-82
2020/12/21 01:04:16;;;;;;;13.73;9.60;;;;;;;17.82;71.07;102076.78;5070162;28;20473;-83
2020/12/21 01:06:42;;;;;;;13.30;9.20;;;;;;;17.88;70.41;102076.81;5100003;28;20036;-77
2020/12/21 01:09:11;;;;;;;18.33;9.60;;;;;;;17.86;70.77;102070.56;5084286;28;20056;-76
2020/12/21 01:11:37;;;;;;;11.35;9.13;;;;;;;17.85;71.09;102083.94;5070696;28;20029;-76
2020/12/21 01:14:04;;;;;;;11.27;9.05;;;;;;;17.87;71.10;102080.38;5064075;28;20028;-76
2020/12/21 01:16:30;;;;;;;11.13;9.20;;;;;;;17.86;70.90;102080.34;5067898;28;20637;-74
2020/12/21 01:18:56;;;;;;;10.90;8.45;;;;;;;17.83;70.77;102078.56;5076960;28;20055;-76
2020/12/21 01:21:24;;;;;;;11.70;8.65;;;;;;;17.83;70.66;102065.22;5053296;28;20036;-76
2020/12/21 01:23:50;;;;;;;19.77;9.48;;;;;;;17.83;70.29;102065.22;5075428;28;20032;-76
2020/12/21 01:26:16;;;;;;;10.68;8.23;;;;;;;17.83;70.84;102064.31;5084999;28;20028;-76
2020/12/21 01:28:43;;;;;;;12.73;9.38;;;;;;;17.84;70.60;102069.69;5073868;28;20036;-76
2020/12/21 01:31:09;;;;;;;11.40;8.13;;;;;;;17.86;70.70;102064.31;5076992;28;20476;-76
2020/12/21 01:33:35;;;;;;;9.88;7.90;;;;;;;17.84;70.98;102063.44;5065308;28;20047;-76
2020/12/21 01:36:01;;;;;;;19.50;8.38;;;;;;;17.85;70.88;102067.91;5083503;28;20032;-77
2020/12/21 01:38:28;;;;;;;15.48;8.70;;;;;;;17.84;70.92;102064.34;5076122;28;20031;-76
2020/12/21 01:40:54;;;;;;;16.08;8.02;;;;;;;17.84;70.63;102060.78;5071887;28;20028;-79
2020/12/21 01:43:20;;;;;;;9.13;7.70;;;;;;;17.85;70.53;102058.09;5061191;28;20036;-78
2020/12/21 01:45:46;;;;;;;14.90;8.30;;;;;;;17.82;71.01;102067.88;5060734;28;20044;-78
2020/12/21 01:48:12;;;;;;;8.77;7.78;;;;;;;17.82;70.65;102062.53;5081524;28;20475;-78
2020/12/21 01:50:39;;;;;;;13.32;8.45;;;;;;;17.83;71.02;102056.31;5066979;28;20039;-77
2020/12/21 01:53:10;;;;;;;11.93;8.27;;;;;;;17.83;70.99;102064.31;5063963;28;20039;-78
2020/12/21 01:55:40;;;;;;;10.55;7.85;;;;;;;17.81;71.10;102052.72;5048439;28;20067;-78
2020/12/21 01:58:06;;;;;;;12.95;8.07;;;;;;;17.81;71.02;102050.94;5061738;28;20044;-77
2020/12/21 02:00:33;;;;;;;9.82;7.40;;;;;;;17.81;70.88;102053.63;5058187;28;20040;-78
2020/12/21 02:02:59;;;;;;;14.18;7.53;;;;;;;17.85;70.57;102044.72;5080470;28;20032;-78
2020/12/21 02:05:25;;;;;;;12.40;7.28;;;;;;;17.84;70.90;102044.75;5081747;28;20024;-77
2020/12/21 02:07:52;;;;;;;9.45;6.95;;;;;;;17.82;71.02;102035.81;5076638;28;20157;-77
2020/12/21 02:10:19;;;;;;;8.63;7.72;;;;;;;17.83;70.78;102042.94;5071340;28;20039;-76
2020/12/21 02:12:45;;;;;;;9.55;7.40;;;;;;;17.83;70.46;102032.25;5058631;28;20078;-78
2020/12/21 02:15:12;;;;;;;8.75;7.22;;;;;;;17.85;70.75;102027.84;5083853;28;20028;-78
2020/12/21 02:17:38;;;;;;;9.45;7.78;;;;;;;17.84;71.12;102031.38;5101671;28;20496;-79
2020/12/21 02:20:04;;;;;;;12.80;7.70;;;;;;;17.81;71.00;102029.56;5082210;28;20032;-79
2020/12/21 02:22:30;;;;;;;8.30;7.18;;;;;;;17.81;70.63;102034.03;5083065;28;20641;-78
2020/12/21 02:24:56;;;;;;;9.48;7.60;;;;;;;17.81;71.03;102029.56;5094888;28;20042;-78
2020/12/21 02:27:23;;;;;;;10.25;7.30;;;;;;;17.81;70.92;102021.56;5069197;28;20044;-78
2020/12/21 02:29:49;;;;;;;9.20;6.82;;;;;;;17.80;70.76;102022.44;5059279;28;20040;-77
2020/12/21 02:32:15;;;;;;;7.68;6.68;;;;;;;17.81;70.65;102021.56;5081056;28;20036;-78
2020/12/21 02:34:42;;;;;;;7.22;6.38;;;;;;;17.83;70.55;102032.25;5083906;28;20028;-84
2020/12/21 02:37:08;;;;;;;8.50;6.57;;;;;;;17.84;70.81;102028.72;5066601;28;20125;-81
2020/12/21 02:39:34;;;;;;;9.05;6.47;;;;;;;17.87;71.11;102034.06;5063313;28;20394;-82
2020/12/21 02:42:00;;;;;;;13.57;7.35;;;;;;;17.88;71.11;102030.50;5065043;28;20036;-82
2020/12/21 02:44:27;;;;;;;8.27;6.50;;;;;;;17.85;71.09;102033.19;5102603;27;20039;-82
2020/12/21 02:46:53;;;;;;;9.40;6.90;;;;;;;17.84;71.20;102031.38;5113361;27;20043;-81
2020/12/21 02:49:19;;;;;;;13.68;6.57;;;;;;;17.85;70.80;102041.19;5061376;28;20051;-82
2020/12/21 02:51:51;;;;;;;7.60;6.55;;;;;;;17.87;70.71;102028.72;5064902;28;20063;-82
2020/12/21 02:54:18;;;;;;;7.82;6.93;;;;;;;17.81;71.27;102032.25;5080061;28;20028;-82
2020/12/21 02:56:44;;;;;;;14.90;7.03;;;;;;;17.84;70.84;102034.06;5094964;28;20028;-82
2020/12/21 02:59:10;;;;;;;15.05;6.65;;;;;;;17.87;70.58;102032.28;5080323;28;20031;-80
2020/12/21 03:01:36;;;;;;;6.95;5.90;;;;;;;17.85;70.62;102023.34;5099442;28;20042;-75
2020/12/21 03:04:02;;;;;;;23.40;6.28;;;;;;;17.86;70.78;102033.16;5080450;28;20028;-80
2020/12/21 03:06:29;;;;;;;12.05;6.57;;;;;;;17.86;70.70;102027.81;5060706;28;20032;-79
2020/12/21 03:08:55;;;;;;;10.60;5.88;;;;;;;17.92;71.08;102033.19;5062163;28;20546;-79
2020/12/21 03:11:21;;;;;;;9.45;5.55;;;;;;;17.94;70.46;102033.22;5075996;28;20036;-81
2020/12/21 03:13:47;;;;;;;17.00;5.93;;;;;;;17.94;70.24;102027.88;5083141;28;20040;-81
2020/12/21 03:16:13;;;;;;;14.35;6.00;;;;;;;17.95;70.39;102037.69;5086076;28;20048;-78
2020/12/21 03:18:40;;;;;;;5.88;5.28;;;;;;;17.96;70.50;102033.22;5059901;28;20046;-78
2020/12/21 03:21:06;;;;;;;7.22;6.05;;;;;;;17.95;70.31;102040.34;5081618;28;20028;-78
2020/12/21 03:23:32;;;;;;;7.22;6.03;;;;;;;17.97;70.28;102043.03;5100540;28;20031;-79
2020/12/21 03:25:58;;;;;;;6.97;5.90;;;;;;;17.92;70.40;102033.19;5066944;28;20047;-79
2020/12/21 03:28:24;;;;;;;6.55;5.90;;;;;;;17.93;70.50;102039.44;5065228;28;20039;-79
2020/12/21 03:30:50;;;;;;;9.05;5.30;;;;;;;17.93;70.32;102040.31;5079713;28;20024;-80
2020/12/21 03:33:17;;;;;;;9.10;5.88;;;;;;;17.93;69.91;102043.00;5062514;28;20032;-80
2020/12/21 03:35:43;;;;;;;6.07;5.47;;;;;;;17.92;70.19;102043.88;5067949;28;20390;-80
2020/12/21 03:38:10;;;;;;;6.22;5.38;;;;;;;17.96;70.47;102033.22;5050194;28;20046;-79
2020/12/21 03:40:36;;;;;;;12.02;5.70;;;;;;;17.96;69.96;102027.88;5083185;28;20066;-79
2020/12/21 03:43:02;;;;;;;8.68;5.78;;;;;;;17.96;70.26;102036.78;5061305;28;20036;-79
2020/12/21 03:45:28;;;;;;;8.35;5.18;;;;;;;17.93;70.04;102036.75;5074280;28;20054;-77
2020/12/21 03:47:55;;;;;;;5.78;5.18;;;;;;;17.91;69.95;102034.09;5073461;28;20485;-77
2020/12/21 03:50:21;;;;;;;6.05;5.35;;;;;;;17.88;70.08;102039.41;5063460;28;20036;-77
2020/12/21 03:52:47;;;;;;;10.10;4.70;;;;;;;17.81;70.19;102042.03;5057014;28;20043;-77
2020/12/21 03:55:13;;;;;;;5.75;5.15;;;;;;;17.78;70.79;102037.59;5062319;28;20036;-77
2020/12/21 03:57:40;;;;;;;9.27;5.75;;;;;;;17.82;70.63;102036.72;5066175;28;20047;-77
2020/12/21 04:00:07;;;;;;;7.10;5.78;;;;;;;17.80;70.23;102049.16;5064311;28;20036;-78
2020/12/21 04:02:34;;;;;;;6.20;5.05;;;;;;;17.82;70.80;102042.06;5081473;28;20032;-79
2020/12/21 04:05:06;;;;;;;7.25;4.80;;;;;;;17.83;70.51;102053.63;5064142;28;20126;-79
2020/12/21 04:07:34;;;;;;;6.05;5.40;;;;;;;17.80;70.56;102053.59;5070342;28;20037;-78
2020/12/21 04:10:00;;;;;;;6.03;5.43;;;;;;;17.79;70.20;102054.47;5062804;28;20515;-78
2020/12/21 04:12:26;;;;;;;9.35;5.15;;;;;;;17.82;70.40;102046.50;5056570;28;20036;-77
2020/12/21 04:14:52;;;;;;;9.80;4.68;;;;;;;17.91;70.49;102047.47;5079913;28;20032;-78
2020/12/21 04:17:19;;;;;;;5.43;4.88;;;;;;;17.88;70.31;102059.91;5079844;28;20452;-78
2020/12/21 04:19:45;;;;;;;8.82;5.28;;;;;;;17.85;70.15;102059.91;5078850;28;20035;-80
2020/12/21 04:22:11;;;;;;;6.45;4.68;;;;;;;17.90;70.11;102053.69;5064622;28;20044;-80
2020/12/21 04:24:37;;;;;;;5.93;4.55;;;;;;;17.83;70.35;102048.28;5077301;28;20032;-80
2020/12/21 04:27:03;;;;;;;5.97;4.63;;;;;;;17.84;70.37;102050.97;5080792;28;20043;-79
2020/12/21 04:29:30;;;;;;;9.15;4.80;;;;;;;17.85;70.52;102054.56;5058001;28;20599;-80
2020/12/21 04:31:56;;;;;;;6.07;4.82;;;;;;;17.80;70.61;102053.59;5080899;28;20036;-81
2020/12/21 04:34:25;;;;;;;5.15;4.63;;;;;;;17.84;70.58;102053.66;5058063;28;20047;-79
2020/12/21 04:36:52;;;;;;;5.22;4.72;;;;;;;17.84;70.48;102052.75;5094329;28;20039;-80
2020/12/21 04:39:21;;;;;;;5.40;4.80;;;;;;;17.85;70.33;102059.91;5080649;28;20392;-80
2020/12/21 04:41:54;;;;;;;8.10;4.40;;;;;;;17.83;70.39;102058.97;5058949;28;20032;-77
2020/12/21 04:44:21;;;;;;;4.63;4.23;;;;;;;17.81;70.50;102058.06;5080206;28;20031;-77
2020/12/21 04:46:57;;;;;;;4.70;4.13;;;;;;;17.83;70.11;102062.53;5063207;28;20103;-78
2020/12/21 04:49:23;;;;;;;10.88;4.47;;;;;;;17.83;70.39;102064.31;5080515;28;20044;-78
2020/12/21 04:51:50;;;;;;;4.78;4.13;;;;;;;17.81;70.05;102053.63;5058314;28;20432;-77
2020/12/21 04:54:17;;;;;;;5.25;4.20;;;;;;;17.81;70.25;102058.06;5082823;28;20024;-77
2020/12/21 04:56:43;;;;;;;6.40;4.72;;;;;;;17.81;70.74;102055.41;5064436;28;21108;-77
2020/12/21 04:59:10;;;;;;;5.15;4.38;;;;;;;17.79;70.55;102052.69;5055468;28;20036;-77
2020/12/21 05:01:37;;;;;;;6.00;4.40;;;;;;;17.80;70.20;102053.59;5062432;28;20036;-77
2020/12/21 05:04:03;;;;;;;5.03;4.55;;;;;;;17.79;70.60;102051.81;5058738;28;20125;-77
2020/12/21 05:06:29;;;;;;;4.28;3.88;;;;;;;17.79;70.56;102058.03;5077315;28;20023;-78
2020/12/21 05:09:08;;;;;;;5.93;4.72;;;;;;;17.81;70.56;102058.97;5065231;28;20044;-83
2020/12/21 05:11:36;;;;;;;5.40;4.22;;;;;;;17.81;70.36;102064.31;5066964;28;20032;-79
2020/12/21 05:14:10;;;;;;;5.25;3.92;;;;;;;17.78;70.60;102060.72;5086038;28;20024;-79
2020/12/21 05:16:36;;;;;;;6.78;3.95;;;;;;;17.83;70.17;102062.53;5065118;28;20114;-73
2020/12/21 05:19:03;;;;;;;8.57;3.80;;;;;;;17.81;70.44;102066.97;5066367;28;20032;-74
2020/12/21 05:21:29;;;;;;;6.13;4.13;;;;;;;17.89;69.94;102064.34;5080435;28;20051;-76
2020/12/21 05:24:02;;;;;;;14.65;4.22;;;;;;;17.89;70.14;102059.00;5068064;28;20031;-75
2020/12/21 05:26:29;;;;;;;4.03;3.30;;;;;;;17.92;69.91;102061.69;5077669;28;20067;-75
2020/12/21 05:28:56;;;;;;;4.00;3.60;;;;;;;17.92;70.09;102062.59;5099966;28;20032;-75
2020/12/21 05:31:22;;;;;;;8.82;4.05;;;;;;;17.89;69.69;102062.59;5062587;28;20032;-75
2020/12/21 05:33:49;;;;;;;5.75;4.35;;;;;;;17.90;70.04;102066.16;5063071;28;20040;-75
2020/12/21 05:36:16;;;;;;;5.78;3.92;;;;;;;17.91;69.71;102063.50;5079019;28;20042;-75
2020/12/21 05:38:43;;;;;;;4.22;3.70;;;;;;;17.89;69.99;102069.72;5092433;28;20028;-75
2020/12/21 05:41:11;;;;;;;7.47;4.30;;;;;;;17.89;69.86;102064.34;5067515;28;20031;-76
2020/12/21 05:43:38;;;;;;;4.93;3.88;;;;;;;17.89;70.03;102075.94;5063587;28;20047;-74
2020/12/21 05:46:14;;;;;;;5.03;4.07;;;;;;;17.89;70.08;102075.03;5080352;28;20040;-74
2020/12/21 05:48:41;;;;;;;6.97;4.55;;;;;;;17.88;70.06;102081.28;5084594;28;20039;-74
2020/12/21 05:51:09;;;;;;;4.53;4.07;;;;;;;17.88;70.25;102078.59;5082396;28;20044;-75
2020/12/21 05:53:40;;;;;;;5.50;3.95;;;;;;;17.87;69.82;102080.38;5083558;28;20431;-78
2020/12/21 05:56:08;;;;;;;11.52;4.10;;;;;;;17.81;70.19;102076.75;5066259;28;20047;-78
2020/12/21 05:58:35;;;;;;;6.80;3.60;;;;;;;17.79;70.59;102079.41;5114889;27;20044;-78
2020/12/21 06:01:11;;;;;;;8.13;4.40;;;;;;;17.77;70.35;102080.31;5061635;28;20480;-78
2020/12/21 06:04:08;;;;;;;7.72;3.97;;;;;;;17.72;70.46;102082.94;5069615;28;20047;-78
2020/12/21 06:06:34;;;;;;;3.97;3.53;;;;;;;17.76;70.32;102087.44;5092029;28;20039;-78
2020/12/21 06:09:01;;;;;;;7.40;3.90;;;;;;;17.78;70.17;102090.13;5067777;28;20039;-78
2020/12/21 06:11:28;;;;;;;3.75;3.42;;;;;;;17.73;70.09;102089.16;5060869;28;20032;-77
2020/12/21 06:13:59;;;;;;;4.72;4.22;;;;;;;17.72;70.39;102082.94;5120839;27;20039;-78
2020/12/21 06:16:27;;;;;;;4.07;3.30;;;;;;;17.75;70.21;102079.41;5060373;28;20032;-76
2020/12/21 06:19:03;;;;;;;5.75;4.05;;;;;;;17.80;70.07;102081.22;5079792;28;20047;-76
2020/12/21 06:21:43;;;;;;;4.43;3.80;;;;;;;17.79;70.33;102081.19;5095077;28;20031;-77
2020/12/21 06:24:16;;;;;;;7.50;4.05;;;;;;;17.84;70.15;102082.16;5078097;28;20024;-75
2020/12/21 06:26:43;;;;;;;10.95;3.90;;;;;;;17.80;70.64;102083.88;5072862;28;20040;-75
2020/12/21 06:29:10;;;;;;;6.60;4.15;;;;;;;17.88;70.30;102071.47;5050490;28;20039;-75
2020/12/21 06:31:39;;;;;;;13.98;4.28;;;;;;;17.90;70.38;102083.09;5056564;28;20032;-75
2020/12/21 06:34:05;;;;;;;4.60;3.72;;;;;;;17.94;70.09;102078.63;5044707;28;20032;-76
2020/12/21 06:36:32;;;;;;;5.45;4.20;;;;;;;17.91;69.92;102082.19;5096678;28;20675;-76
2020/12/21 06:38:59;;;;;;;6.03;4.07;;;;;;;17.85;70.42;102086.59;5080767;28;20410;-74
2020/12/21 06:41:26;;;;;;;4.40;3.40;;;;;;;17.86;70.14;102085.69;5076422;28;20028;-75
2020/12/21 06:43:56;;;;;;;8.07;4.00;;;;;;;17.82;70.52;102091.91;5072863;28;20035;-75
2020/12/21 06:46:22;;;;;;;4.50;3.22;;;;;;;17.85;70.25;102089.28;5091690;28;20051;-75
2020/12/21 06:49:14;;;;;;;5.22;3.67;;;;;;;17.84;70.22;102092.84;5062835;28;20393;-75
2020/12/21 06:51:42;;;;;;;5.70;3.30;;;;;;;17.81;70.01;102095.47;5062425;28;20040;-75
2020/12/21 06:54:10;;;;;;;4.05;3.75;;;;;;;17.78;70.71;102098.13;5058833;28;20040;-75
2020/12/21 06:56:37;;;;;;;9.15;3.78;;;;;;;17.76;70.53;102099.88;5071600;28;20043;-75
2020/12/21 06:59:07;;;;;;;4.55;3.80;;;;;;;17.78;70.28;102104.38;5055536;28;20040;-76
2020/12/21 07:01:33;;;;;;;3.67;3.33;;;;;;;17.74;70.38;102105.22;5085154;28;20039;-77
2020/12/21 07:04:00;;;;;;;4.25;3.58;;;;;;;17.80;70.49;102112.38;5057825;28;20503;-85
2020/12/21 07:06:26;;;;;;;18.38;3.95;;;;;;;17.95;69.95;102107.16;5062024;28;20034;-76
2020/12/21 07:08:57;;;;;;;7.55;3.03;;;;;;;17.97;69.99;102109.84;5080435;28;20028;-74
2020/12/21 07:11:23;;;;;;;5.43;3.60;;;;;;;17.90;70.25;102111.56;5058198;28;20039;-74
2020/12/21 07:13:50;;;;;;;12.73;3.97;;;;;;;17.96;70.36;102114.28;5063269;28;20036;-75
2020/12/21 07:16:17;;;;;;;12.85;4.05;;;;;;;17.93;70.16;102116.94;5078416;28;20023;-77
2020/12/21 07:18:44;;;;;;;16.23;3.63;;;;;;;17.86;70.06;102120.44;5055115;28;20036;-75
2020/12/21 07:21:10;;;;;;;18.38;4.07;;;;;;;17.90;69.96;102122.25;5056769;28;20044;-74
2020/12/21 07:23:40;;;;;;;16.25;4.45;;;;;;;17.92;70.25;102128.50;5057654;28;20401;-75
2020/12/21 07:26:07;;;;;;;19.95;3.70;;;;;;;17.91;70.37;102124.97;5039267;28;20043;-73
2020/12/21 07:28:33;;;;;;;10.82;3.75;;;;;;;17.89;70.26;102124.03;5051541;28;20039;-73
2020/12/21 07:31:18;;;;;;;11.63;3.80;;;;;;;17.84;70.32;102128.47;5056511;28;20036;-74
2020/12/21 07:33:58;;;;;;;9.73;3.92;;;;;;;17.90;70.16;102131.19;5049616;28;20075;-76
2020/12/21 07:36:28;;;;;;;5.30;3.78;;;;;;;17.90;70.23;102135.63;5078954;28;20031;-75
2020/12/21 07:39:13;;;;;;;4.70;3.55;;;;;;;17.91;69.92;102140.09;5082250;28;20046;-75
2020/12/21 07:41:44;;;;;;;17.45;3.60;;;;;;;17.92;70.54;102145.41;5065430;28;20036;-75
2020/12/21 07:44:21;;;;;;;18.77;3.85;;;;;;;18.04;70.13;102141.97;5056779;28;20036;-74
2020/12/21 07:46:54;;;;;;;30.45;4.50;;;;;;;18.00;70.50;102136.56;5083471;28;20039;-74
2020/12/21 07:49:20;;;;;;;23.40;3.70;;;;;;;17.97;70.50;102132.13;5074154;28;20036;-76
2020/12/21 07:51:46;;;;;;;36.08;4.13;;;;;;;17.98;70.98;102135.69;5072532;28;20020;-74
2020/12/21 07:54:13;;;;;;;12.85;3.85;;;;;;;17.97;70.63;102134.78;5054720;28;20051;-73
2020/12/21 07:56:40;;;;;;;15.23;3.80;;;;;;;17.97;70.98;102136.56;5071084;28;20024;-73
2020/12/21 07:59:16;;;;;;;35.50;4.93;;;;;;;18.03;71.10;102131.25;5091820;28;20036;-74
2020/12/21 08:01:43;;;;;;;33.83;4.85;;;;;;;18.07;70.85;102130.38;5078450;28;20027;-75
2020/12/21 08:04:17;;;;;;;23.88;4.20;;;;;;;18.13;70.39;102134.00;5072454;28;20024;-73
2020/12/21 08:06:46;;;;;;;44.53;3.85;;;;;;;18.14;70.10;102126.88;5050465;28;20044;-72
2020/12/21 08:09:13;;;;;;;28.40;4.40;;;;;;;18.03;70.30;102125.91;5087661;28;20047;-72
2020/12/21 08:11:39;;;;;;;47.17;4.25;;;;;;;18.02;71.83;102122.34;5070675;28;20035;-76
2020/12/21 08:14:14;;;;;;;58.55;4.95;;;;;;;18.09;72.23;102126.84;5077205;28;20024;-74
2020/12/21 08:16:41;;;;;;;90.75;5.60;;;;;;;18.13;71.55;102125.97;5072799;28;20040;-74
2020/12/21 08:19:13;;;;;;;49.30;4.75;;;;;;;18.06;71.47;102125.91;5072654;28;20040;-74
2020/12/21 08:21:40;;;;;;;21.40;3.90;;;;;;;17.97;71.34;102132.13;5070146;28;20044;-72
2020/12/21 08:24:07;;;;;;;20.70;3.70;;;;;;;17.91;71.01;102121.38;5076106;28;20047;-72
2020/12/21 08:26:36;;;;;;;31.67;4.25;;;;;;;17.91;71.06;102116.03;5044199;28;20638;-73
2020/12/21 08:29:03;;;;;;;22.58;4.15;;;;;;;17.92;70.49;102118.69;5081999;28;20047;-72
2020/12/21 08:31:29;;;;;;;27.02;4.20;;;;;;;17.91;70.40;102114.28;5057615;28;20071;-72
2020/12/21 08:34:03;;;;;;;14.82;4.20;;;;;;;17.86;70.28;102113.31;5078407;28;20066;-72
2020/12/21 08:36:47;;;;;;;18.73;3.97;;;;;;;17.86;70.49;102104.41;5042993;28;20043;-71
2020/12/21 08:39:20;;;;;;;24.50;3.88;;;;;;;17.82;70.71;102113.28;5086532;28;20039;-72
2020/12/21 08:41:48;;;;;;;8.95;4.43;;;;;;;17.83;70.00;102113.31;5096316;28;20036;-72
2020/12/21 08:44:24;;;;;;;10.75;4.13;;;;;;;17.83;70.25;102115.09;5058156;28;20032;-72
2020/12/21 08:46:52;;;;;;;11.48;4.35;;;;;;;17.83;69.60;102102.63;5053772;28;20040;-71
2020/12/21 08:49:22;;;;;;;16.48;4.93;;;;;;;17.83;69.63;102107.06;5094588;28;20043;-72
2020/12/21 08:51:48;;;;;;;9.98;4.80;;;;;;;17.83;69.69;102110.63;5044288;28;20044;-72
2020/12/21 08:54:15;;;;;;;8.52;5.30;;;;;;;17.82;69.56;102110.63;5075740;28;20020;-72
2020/12/21 08:56:48;;;;;;;12.52;5.57;;;;;;;17.82;69.50;102108.84;5051929;28;20043;-73
2020/12/21 08:59:15;;;;;;;9.18;5.70;;;;;;;17.81;69.53;102108.81;5075213;28;20042;-72
2020/12/21 09:01:42;;;;;;;10.82;5.78;;;;;;;17.82;69.58;102097.25;5062299;28;20043;-72
2020/12/21 09:04:08;;;;;;;12.18;6.22;;;;;;;17.81;69.42;102104.38;5076078;28;20047;-73
2020/12/21 09:06:34;;;;;;;10.48;6.35;;;;;;;17.81;69.15;102106.16;5056285;28;20024;-74
2020/12/21 09:09:01;;;;;;;9.55;7.22;;;;;;;17.81;69.08;102099.03;5080078;28;20032;-72
2020/12/21 09:11:27;;;;;;;13.45;7.55;;;;;;;17.78;69.00;102100.81;5076279;28;20036;-74
2020/12/21 09:13:53;;;;;;;17.10;8.18;;;;;;;17.81;69.12;102103.47;5056608;28;20052;-74
2020/12/21 09:16:24;;;;;;;10.20;7.75;;;;;;;17.82;68.90;102098.16;5065248;28;20032;-74
2020/12/21 09:18:51;;;;;;;15.80;8.07;;;;;;;17.81;68.73;102095.47;5037545;28;20040;-73
2020/12/21 09:21:22;;;;;;;11.45;8.57;;;;;;;17.79;68.56;102097.22;5051901;28;20051;-74
2020/12/21 09:23:49;;;;;;;16.58;9.18;;;;;;;17.78;68.99;102088.34;5058349;28;20039;-74
2020/12/21 09:26:16;;;;;;;13.23;8.75;;;;;;;17.78;68.73;102087.44;5056775;28;20043;-74
2020/12/21 09:28:43;;;;;;;14.45;9.18;;;;;;;17.78;68.86;102082.09;5045211;28;20563;-71
2020/12/21 09:31:15;;;;;;;12.45;8.93;;;;;;;17.78;68.67;102083.00;5054500;28;20036;-70
2020/12/21 09:33:42;;;;;;;15.82;9.30;;;;;;;17.78;68.59;102072.31;5058094;28;20044;-70
2020/12/21 09:36:08;;;;;;;21.85;9.55;;;;;;;17.82;68.60;102070.53;5046618;28;20028;-70
2020/12/21 09:38:35;;;;;;;24.95;10.48;;;;;;;17.79;69.03;102066.06;5066735;28;20043;-70
2020/12/21 09:41:01;;;;;;;21.17;10.32;;;;;;;17.80;69.04;102067.84;5069354;28;20054;-70
2020/12/21 09:43:27;;;;;;;24.38;10.30;;;;;;;17.81;68.74;102066.97;5097291;28;20024;-71
2020/12/21 09:45:54;;;;;;;20.27;10.43;;;;;;;17.79;68.79;102058.03;5070725;28;21161;-70
2020/12/21 09:48:20;;;;;;;17.70;11.25;;;;;;;17.80;69.04;102056.28;5070585;28;20032;-70
2020/12/21 09:50:47;;;;;;;24.48;11.32;;;;;;;17.80;68.93;102045.59;5070724;28;20048;-70
2020/12/21 09:53:13;;;;;;;23.15;10.70;;;;;;;17.81;68.74;102044.72;5070357;28;20051;-70
2020/12/21 09:55:39;;;;;;;18.77;11.30;;;;;;;17.83;68.90;102037.59;5072298;28;20044;-75
2020/12/21 09:58:05;;;;;;;27.75;10.73;;;;;;;17.84;68.65;102036.72;5071874;28;20085;-80
2020/12/21 10:00:32;;;;;;;32.42;11.27;;;;;;;17.83;68.27;102032.25;5074773;28;20050;-75
2020/12/21 10:02:58;;;;;;;27.73;11.38;;;;;;;17.81;68.84;102031.34;5060746;28;20028;-75
2020/12/21 10:05:25;;;;;;;30.15;11.55;;;;;;;17.81;68.95;102031.34;5073626;28;20039;-76
2020/12/21 10:07:51;;;;;;;34.03;11.20;;;;;;;17.79;68.92;102033.09;5071675;28;20397;-80
2020/12/21 10:10:17;;;;;;;31.20;11.77;;;;;;;17.81;68.84;102028.69;5066772;28;20047;-78
2020/12/21 10:12:43;;;;;;;22.00;12.00;;;;;;;17.80;69.16;102032.22;5044839;28;20594;-80
2020/12/21 10:15:09;;;;;;;28.55;12.18;;;;;;;17.78;69.21;102026.91;5078163;28;20042;-81
2020/12/21 10:17:36;;;;;;;29.90;13.13;;;;;;;17.80;69.24;102025.09;5063361;28;20472;-77
2020/12/21 10:20:03;;;;;;;37.45;12.20;;;;;;;17.80;69.18;102021.53;5044529;28;20046;-78
2020/12/21 10:22:30;;;;;;;28.95;13.23;;;;;;;17.77;69.52;102018.88;5050189;28;20032;-77
2020/12/21 10:24:56;;;;;;;32.13;13.85;;;;;;;17.78;69.30;102024.22;5071750;28;20020;-76
2020/12/21 10:27:23;;;;;;;36.75;14.90;;;;;;;17.81;69.29;102012.66;5063259;28;20035;-77
2020/12/21 10:29:50;;;;;;;35.63;14.95;;;;;;;17.79;69.38;102014.41;5052432;28;20054;-76
2020/12/21 10:32:17;;;;;;;35.80;14.35;;;;;;;17.80;68.95;102013.53;5058132;28;20043;-77
2020/12/21 10:34:43;;;;;;;34.60;15.13;;;;;;;17.79;69.44;102012.63;5077445;28;20032;-76
2020/12/21 10:37:09;;;;;;;34.13;15.73;;;;;;;17.79;69.62;102009.97;5042873;28;20610;-77
2020/12/21 10:39:35;;;;;;;29.10;15.43;;;;;;;17.80;69.78;102010.84;5041840;28;20655;-77
2020/12/21 10:42:08;;;;;;;31.48;16.60;;;;;;;17.80;69.43;102016.19;5072817;28;20036;-75
2020/12/21 10:44:34;;;;;;;27.73;15.30;;;;;;;17.77;69.56;101994.81;5069454;28;20032;-75
2020/12/21 10:47:00;;;;;;;25.63;14.38;;;;;;;17.73;69.75;102009.94;5060442;28;20296;-77
2020/12/21 10:49:26;;;;;;;26.00;14.25;;;;;;;17.75;70.18;102008.16;5055224;28;20035;-78
2020/12/21 10:51:53;;;;;;;24.25;14.02;;;;;;;17.78;69.87;102008.19;5063650;28;20393;-78
2020/12/21 10:54:20;;;;;;;43.13;14.40;;;;;;;17.80;69.90;102006.41;5055764;28;20051;-74
2020/12/21 10:56:51;;;;;;;26.58;14.73;;;;;;;17.79;69.97;102001.03;5074200;28;20038;-76
2020/12/21 10:59:17;;;;;;;34.80;13.85;;;;;;;17.78;69.91;101996.63;5074263;28;20111;-74
2020/12/21 11:01:47;;;;;;;35.78;14.27;;;;;;;17.87;69.91;102005.56;5048195;28;20052;-76
2020/12/21 11:04:13;;;;;;;34.70;14.70;;;;;;;17.86;69.75;102000.19;5074178;28;20031;-76
2020/12/21 11:06:39;;;;;;;35.00;14.18;;;;;;;17.82;69.93;101995.75;5078497;28;20059;-75
2020/12/21 11:09:06;;;;;;;34.88;13.65;;;;;;;17.80;69.67;101995.72;5074803;28;20480;-75
2020/12/21 11:11:32;;;;;;;33.35;13.80;;;;;;;17.79;69.97;101993.94;5071236;28;20044;-75
2020/12/21 11:14:03;;;;;;;27.67;14.60;;;;;;;17.80;69.67;101990.38;5053110;28;20051;-75
2020/12/21 11:16:30;;;;;;;38.35;14.23;;;;;;;17.77;69.77;101985.03;5056559;28;20507;-75
2020/12/21 11:18:57;;;;;;;27.45;13.57;;;;;;;17.78;69.84;101988.59;5053131;28;20050;-74
2020/12/21 11:21:23;;;;;;;29.42;13.50;;;;;;;17.77;69.52;101992.16;5071729;28;20040;-75